Time;durP1;ratioP1;P1;durP2;ratioP2;P2;SDS_P1;SDS_P2;PMS_P1;PMS_P2;Temp;Humidity;BMP_temperature;BMP_pressure;BME280_temperature;BME280_humidity;BME280_pressure;Samples;Min_cycle;Max_cycle;Signal;HPM_P1;HPM_P2
2022/01/21 00:00:57;;;;;;;10.53;4.28;;;;;;;-3.11;79.05;98805.65;1776628;81;20991;-37
2022/01/21 00:03:22;;;;;;;14.53;4.85;;;;;;;-3.12;79.15;98813.80;1776573;79;21420;-37
2022/01/21 00:05:48;;;;;;;8.68;4.42;;;;;;;-3.23;78.93;98812.20;1776626;80;21023;-38
2022/01/21 00:08:16;;;;;;;12.10;4.95;;;;;;;-3.21;79.11;98806.16;1776530;81;21015;-37
2022/01/21 00:10:41;;;;;;;16.70;6.35;;;;;;;-3.20;79.17;98814.73;1776722;79;20979;-38
2022/01/21 00:13:22;;;;;;;13.55;5.40;;;;;;;-3.21;78.99;98812.59;1776668;80;21519;-38
2022/01/21 00:15:41;;;;;;;10.10;5.03;;;;;;;-3.31;79.11;98821.23;1775023;80;21032;-37
2022/01/21 00:18:08;;;;;;;9.45;4.22;;;;;;;-3.25;79.09;98821.64;1776774;81;21075;-38
2022/01/21 00:31:29;;;;;;;9.15;3.02;;;;;;;-3.28;79.10;98832.78;1776885;81;21075;-38
2022/01/21 00:33:55;;;;;;;8.93;3.42;;;;;;;-3.35;78.92;98829.39;1776664;81;21015;-37
2022/01/21 00:36:20;;;;;;;7.35;3.47;;;;;;;-3.29;78.94;98829.38;1776773;80;21027;-38
2022/01/21 00:38:46;;;;;;;11.93;3.77;;;;;;;-3.37;78.86;98827.27;1776724;80;20982;-38
2022/01/21 00:41:17;;;;;;;6.72;3.10;;;;;;;-3.33;78.50;98828.10;1776674;80;20990;-37
2022/01/21 00:43:46;;;;;;;9.95;4.35;;;;;;;-3.33;78.50;98828.10;1776082;79;20944;-38
2022/01/21 00:46:13;;;;;;;8.63;3.20;;;;;;;-3.32;78.57;98835.81;1776703;81;21026;-37
2022/01/21 00:48:39;;;;;;;9.50;3.02;;;;;;;-3.32;78.38;98838.38;1776766;81;21488;-38
2022/01/21 00:51:06;;;;;;;9.88;4.28;;;;;;;-3.29;78.39;98845.23;1776747;81;21059;-38
2022/01/21 00:53:32;;;;;;;6.37;2.55;;;;;;;-3.31;78.04;98845.66;1776807;81;20982;-38
2022/01/21 00:55:58;;;;;;;8.40;3.07;;;;;;;-3.26;78.08;98851.63;1776937;79;20975;-37
2022/01/21 00:58:24;;;;;;;6.62;2.90;;;;;;;-3.28;78.09;98844.36;1776666;81;21450;-39
2022/01/21 01:00:50;;;;;;;5.53;2.90;;;;;;;-3.15;77.95;98846.41;1776715;80;20983;-39
2022/01/21 01:03:19;;;;;;;8.45;2.92;;;;;;;-3.21;77.56;98855.03;1776551;80;21472;-39
2022/01/21 01:05:44;;;;;;;8.50;3.08;;;;;;;-3.13;77.66;98858.41;1776500;80;20967;-37
2022/01/21 01:08:10;;;;;;;9.58;2.90;;;;;;;-3.10;77.65;98857.53;1776811;80;21476;-37
2022/01/21 01:10:58;;;;;;;8.33;3.75;;;;;;;-3.03;77.45;98863.49;1776923;80;21019;-39
2022/01/21 01:21:23;;;;;;;6.65;2.77;;;;;;;-2.97;76.64;98861.70;1776731;81;20968;-38
2022/01/21 01:29:19;;;;;;;8.43;2.58;;;;;;;-2.86;76.48;98877.50;1776908;81;20963;-37
2022/01/21 01:31:45;;;;;;;6.90;2.90;;;;;;;-2.88;76.56;98881.37;1776835;79;20959;-36
2022/01/21 01:34:11;;;;;;;8.58;2.67;;;;;;;-2.88;76.23;98886.52;1776712;81;21544;-37
2022/01/21 01:36:39;;;;;;;4.20;2.40;;;;;;;-2.78;76.36;98883.02;1776699;81;20983;-37
2022/01/21 01:39:16;;;;;;;10.80;4.08;;;;;;;-2.86;75.78;98891.66;1776876;80;20979;-38
2022/01/21 01:41:48;;;;;;;7.40;2.85;;;;;;;-2.82;75.84;98890.34;1775598;80;20956;-37
2022/01/21 01:49:37;;;;;;;9.05;2.52;;;;;;;-2.67;75.85;98882.05;1776747;81;21484;-38
2022/01/21 01:52:13;;;;;;;8.33;2.90;;;;;;;-2.62;75.95;98881.17;1776707;79;20985;-37
2022/01/21 01:54:44;;;;;;;5.62;2.50;;;;;;;-2.60;75.83;98882.42;1776591;80;21468;-37
2022/01/21 01:57:10;;;;;;;8.08;2.70;;;;;;;-2.70;74.82;98890.67;1776722;80;21031;-38
2022/01/21 01:59:36;;;;;;;7.30;2.40;;;;;;;-2.74;74.82;98867.13;1776595;80;21460;-37
2022/01/21 02:02:09;;;;;;;4.70;2.17;;;;;;;-2.67;74.89;98874.33;1776705;81;21449;-37
2022/01/21 02:04:35;;;;;;;4.17;2.08;;;;;;;-2.76;74.61;98870.98;1782872;80;21007;-42
2022/01/21 02:07:03;;;;;;;5.67;2.42;;;;;;;-2.73;74.77;98877.81;1791231;80;21026;-37
2022/01/21 02:09:29;;;;;;;15.32;2.02;;;;;;;-2.71;74.79;98872.22;1791372;80;20994;-38
2022/01/21 02:11:55;;;;;;;6.80;2.40;;;;;;;-2.64;74.79;98884.17;1791528;80;20991;-37
2022/01/21 02:14:27;;;;;;;6.50;2.50;;;;;;;-2.68;74.41;98876.50;1791343;79;20986;-37
2022/01/21 02:22:17;;;;;;;6.20;2.22;;;;;;;-2.68;74.46;98881.21;1791180;80;21005;-37
2022/01/21 02:24:57;;;;;;;6.30;2.15;;;;;;;-2.69;73.85;98876.95;1791175;80;21471;-37
2022/01/21 02:27:17;;;;;;;10.30;5.45;;;;;;;-2.66;74.33;98874.77;1789452;80;20932;-36
2022/01/21 02:29:47;;;;;;;6.60;2.55;;;;;;;-2.61;74.40;98882.02;1791209;80;21026;-36
2022/01/21 02:32:11;;;;;;;7.22;2.70;;;;;;;-2.64;73.92;98884.61;1790747;80;21405;-37
2022/01/21 02:34:38;;;;;;;6.72;2.27;;;;;;;-2.70;74.00;98879.94;1791199;80;20963;-37
2022/01/21 02:37:04;;;;;;;4.42;1.77;;;;;;;-2.73;73.86;98878.69;1791167;80;21508;-37
2022/01/21 02:39:30;;;;;;;4.87;1.95;;;;;;;-2.83;73.83;98883.48;1791211;80;21539;-37
2022/01/21 02:41:56;;;;;;;4.47;2.05;;;;;;;-2.78;74.03;98870.59;1718937;80;21157;-38
2022/01/21 02:44:22;;;;;;;6.28;2.45;;;;;;;-2.89;73.76;98866.81;1697931;84;21503;-39
2022/01/21 02:46:58;;;;;;;6.97;2.75;;;;;;;-2.92;73.98;98866.83;1697816;84;20986;-39
2022/01/21 02:49:24;;;;;;;5.00;2.35;;;;;;;-2.88;74.14;98874.94;1697585;84;20963;-36
2022/01/21 02:51:55;;;;;;;6.15;2.62;;;;;;;-3.00;73.99;98882.33;1697831;84;21062;-37
2022/01/21 02:54:21;;;;;;;9.78;2.90;;;;;;;-3.04;74.04;98886.20;1697795;84;20975;-37
2022/01/21 02:56:48;;;;;;;7.12;1.98;;;;;;;-3.21;74.24;98869.61;1697843;84;21671;-37
2022/01/21 02:59:14;;;;;;;6.33;2.10;;;;;;;-3.13;74.44;98873.84;1697953;84;21067;-36
2022/01/21 03:01:42;;;;;;;3.33;1.95;;;;;;;-3.16;74.42;98873.86;1697857;84;21002;-37
2022/01/21 03:04:15;;;;;;;5.95;2.12;;;;;;;-3.10;74.52;98886.66;1697852;84;21006;-37
2022/01/21 03:06:40;;;;;;;3.95;1.67;;;;;;;-3.15;74.38;98883.27;1697268;84;21495;-38
2022/01/21 03:09:07;;;;;;;5.40;2.10;;;;;;;-3.21;74.87;98884.60;1698081;84;20994;-37
2022/01/21 03:11:34;;;;;;;3.67;1.92;;;;;;;-3.21;74.87;98884.60;1697836;84;22197;-37
2022/01/21 03:13:59;;;;;;;7.42;2.30;;;;;;;-3.10;74.64;98885.82;1697870;84;21046;-37
2022/01/21 03:16:27;;;;;;;7.87;2.55;;;;;;;-3.07;74.37;98884.93;1697944;84;20998;-37
2022/01/21 03:18:53;;;;;;;4.20;2.58;;;;;;;-3.10;74.24;98882.80;1697940;84;21063;-37
2022/01/21 03:21:19;;;;;;;10.45;2.30;;;;;;;-3.04;74.41;98890.06;1697750;84;21511;-37
2022/01/21 03:23:51;;;;;;;8.95;1.92;;;;;;;-3.01;74.23;98890.05;1697947;84;21007;-37
2022/01/21 03:26:21;;;;;;;4.45;1.87;;;;;;;-3.00;74.03;98893.03;1697828;84;20990;-37
2022/01/21 03:28:50;;;;;;;7.08;1.72;;;;;;;-3.00;74.12;98886.19;1697832;84;20983;-37
2022/01/21 03:31:16;;;;;;;5.10;1.60;;;;;;;-2.93;74.13;98894.70;1697839;84;21010;-37
2022/01/21 03:33:43;;;;;;;5.25;1.52;;;;;;;-2.99;74.00;98890.89;1697755;84;20996;-39
2022/01/21 03:36:10;;;;;;;3.67;1.62;;;;;;;-2.98;73.74;98895.19;1697935;84;21014;-38
2022/01/21 03:38:37;;;;;;;3.77;1.77;;;;;;;-2.96;73.93;98896.03;1698151;84;21074;-38
2022/01/21 03:41:04;;;;;;;4.45;1.85;;;;;;;-2.94;74.05;98902.02;1698116;84;20978;-38
2022/01/21 03:43:30;;;;;;;5.20;3.02;;;;;;;-2.97;73.76;98899.45;1697870;83;21038;-37
2022/01/21 03:45:57;;;;;;;4.47;2.20;;;;;;;-2.89;73.84;98896.41;1697910;84;21512;-37
2022/01/21 03:48:23;;;;;;;4.85;1.90;;;;;;;-2.87;73.90;98897.24;1697972;84;20999;-38
2022/01/21 03:50:49;;;;;;;9.98;1.92;;;;;;;-2.87;73.82;98908.83;1698038;84;21041;-37
2022/01/21 03:53:15;;;;;;;8.20;2.20;;;;;;;-2.87;73.66;98901.11;1697772;84;21006;-38
2022/01/21 03:55:42;;;;;;;5.62;1.92;;;;;;;-2.96;73.66;98911.02;1697839;84;21002;-38
2022/01/21 03:58:09;;;;;;;5.17;1.90;;;;;;;-2.84;73.86;98902.78;1698098;84;20991;-38
2022/01/21 04:00:47;;;;;;;5.65;1.82;;;;;;;-2.79;73.86;98903.61;1697801;84;21034;-38
2022/01/21 04:03:13;;;;;;;7.83;2.15;;;;;;;-2.80;73.76;98902.77;1697998;84;21054;-38
2022/01/21 04:05:39;;;;;;;6.35;2.40;;;;;;;-2.88;73.58;98898.54;1697830;84;21559;-37
2022/01/21 04:08:07;;;;;;;3.90;1.95;;;;;;;-2.84;73.75;98904.08;1697828;84;21500;-38
2022/01/21 04:10:35;;;;;;;5.95;2.02;;;;;;;-2.79;73.53;98907.03;1697799;84;21005;-38
2022/01/21 04:13:03;;;;;;;6.55;2.12;;;;;;;-2.82;73.35;98909.65;1697819;84;20978;-37
2022/01/21 04:15:29;;;;;;;5.65;1.82;;;;;;;-2.83;73.23;98919.51;1697792;84;21488;-38
2022/01/21 04:17:55;;;;;;;3.52;1.70;;;;;;;-2.87;73.11;98900.23;1697908;84;20991;-38
2022/01/21 04:20:21;;;;;;;6.17;2.02;;;;;;;-2.80;73.21;98902.77;1697729;84;21014;-38
2022/01/21 04:22:47;;;;;;;2.52;1.75;;;;;;;-2.75;73.43;98908.73;1697782;84;20998;-38
2022/01/21 04:25:13;;;;;;;4.33;1.52;;;;;;;-2.73;73.15;98913.44;1697743;84;21010;-42
2022/01/21 04:27:39;;;;;;;5.80;1.67;;;;;;;-2.67;72.96;98914.23;1697771;84;21014;-38
2022/01/21 04:30:08;;;;;;;3.05;1.30;;;;;;;-2.66;72.99;98909.52;1697759;84;21038;-37
2022/01/21 04:32:34;;;;;;;9.33;1.87;;;;;;;-2.70;72.93;98903.09;1697749;84;21010;-37
2022/01/21 04:35:00;;;;;;;4.15;1.77;;;;;;;-2.62;73.03;98904.75;1697786;84;21010;-38
2022/01/21 04:37:26;;;;;;;4.85;1.72;;;;;;;-2.67;72.63;98909.08;1697755;84;21019;-37
2022/01/21 04:39:59;;;;;;;7.00;1.92;;;;;;;-2.61;72.61;98909.05;1697881;84;21495;-39
2022/01/21 04:47:35;;;;;;;4.37;1.80;;;;;;;-2.47;72.77;98917.52;1693230;84;20987;-39
2022/01/21 04:50:01;;;;;;;3.35;1.57;;;;;;;-2.50;72.28;98923.97;1688617;85;21043;-39
2022/01/21 04:52:27;;;;;;;7.20;2.12;;;;;;;-2.54;72.12;98912.00;1688886;84;20994;-38
2022/01/21 04:54:53;;;;;;;9.10;1.50;;;;;;;-2.47;72.36;98921.79;1688634;85;21006;-39
2022/01/21 04:57:19;;;;;;;3.98;1.52;;;;;;;-2.40;72.64;98917.01;1688669;84;21460;-39
2022/01/21 04:59:46;;;;;;;4.20;1.77;;;;;;;-2.42;72.26;98915.77;1688563;85;21014;-39
2022/01/21 05:02:12;;;;;;;5.78;1.80;;;;;;;-2.44;72.21;98923.91;1688595;84;21030;-39
2022/01/21 05:04:38;;;;;;;3.83;1.92;;;;;;;-2.36;72.10;98918.71;1688604;85;21044;-39
2022/01/21 05:07:07;;;;;;;9.65;3.52;;;;;;;-2.39;72.22;98925.17;1688606;84;20990;-38
2022/01/21 05:09:35;;;;;;;5.22;2.12;;;;;;;-2.46;72.19;98924.36;1688459;85;20972;-38
2022/01/21 05:12:07;;;;;;;;;;;;;;;-2.35;72.25;98919.11;1691349;85;21058;-39
2022/01/21 05:14:48;;;;;;;8.70;3.25;;;;;;;-2.31;72.02;98927.22;1688430;85;20120;-39
2022/01/21 05:17:10;;;;;;;6.15;2.25;;;;;;;-2.33;72.25;98927.27;1687066;85;20955;-39
2022/01/21 05:19:36;;;;;;;7.60;2.35;;;;;;;-2.36;72.00;98929.86;1688646;84;21480;-38
2022/01/21 05:22:03;;;;;;;6.45;2.02;;;;;;;-2.27;72.21;98917.33;1688652;84;21011;-38
2022/01/21 05:24:29;;;;;;;3.87;1.50;;;;;;;-2.34;72.15;98921.68;1688977;84;21516;-39
2022/01/21 05:26:58;;;;;;;11.30;4.37;;;;;;;-2.27;71.90;98926.34;1688792;84;21006;-38
2022/01/21 05:29:29;;;;;;;9.40;3.15;;;;;;;-2.22;72.28;98924.59;1688603;84;20986;-38
2022/01/21 05:31:56;;;;;;;6.20;3.20;;;;;;;-2.22;72.07;98928.45;1688728;85;20975;-39
2022/01/21 05:34:23;;;;;;;6.43;3.13;;;;;;;-2.22;72.01;98925.87;1688960;85;21493;-39
2022/01/21 05:36:49;;;;;;;6.90;2.22;;;;;;;-2.27;71.97;98929.34;1688870;84;21018;-39
2022/01/21 05:39:17;;;;;;;3.45;1.95;;;;;;;-2.26;72.12;98927.20;1688697;84;20999;-39
2022/01/21 05:41:46;;;;;;;7.12;2.58;;;;;;;-2.22;72.07;98921.14;1688637;85;21478;-39
2022/01/21 05:46:22;;;;;;;5.78;2.58;;;;;;;-2.23;72.09;98929.75;1688591;84;21023;-39
2022/01/21 05:49:18;;;;;;;7.17;2.45;;;;;;;-2.13;71.97;98930.94;1688654;85;21026;-38
2022/01/21 05:51:45;;;;;;;10.68;3.90;;;;;;;-2.11;72.03;98927.06;1688751;84;21504;-39
2022/01/21 05:54:12;;;;;;;4.95;2.45;;;;;;;-2.18;72.01;98935.27;1688905;84;21054;-39
2022/01/21 05:56:39;;;;;;;5.10;1.90;;;;;;;-2.08;72.08;98933.45;1688798;85;21006;-39
2022/01/21 05:59:06;;;;;;;4.53;2.27;;;;;;;-2.12;72.05;98939.06;1688762;84;21010;-39
2022/01/21 06:01:34;;;;;;;7.80;3.75;;;;;;;-2.15;72.15;98932.68;1688653;85;21014;-39
2022/01/21 06:04:01;;;;;;;5.97;2.98;;;;;;;-2.12;72.04;98943.38;1688774;85;20998;-39
2022/01/21 06:06:28;;;;;;;4.58;2.70;;;;;;;-2.17;72.21;98937.41;1688813;85;20998;-39
2022/01/21 06:08:54;;;;;;;4.58;2.25;;;;;;;-2.15;72.27;98953.29;1688845;85;21011;-39
2022/01/21 06:11:20;;;;;;;8.83;3.10;;;;;;;-2.27;72.48;98933.20;1688634;85;20994;-39
2022/01/21 06:13:48;;;;;;;7.12;2.80;;;;;;;-2.16;72.68;98931.41;1688697;84;20983;-39
2022/01/21 06:16:13;;;;;;;4.95;1.60;;;;;;;-2.11;72.61;98943.81;1688483;84;20994;-39
2022/01/21 06:18:39;;;;;;;3.90;1.50;;;;;;;-2.07;72.15;98948.05;1688641;85;21039;-39
2022/01/21 06:21:05;;;;;;;7.65;1.77;;;;;;;-2.07;72.15;98948.05;1688642;85;21006;-38
2022/01/21 06:23:30;;;;;;;3.42;1.77;;;;;;;-2.07;72.38;98947.18;1688588;84;21067;-39
2022/01/21 06:25:56;;;;;;;7.78;2.40;;;;;;;-2.00;72.17;98954.86;1688679;85;21002;-38
2022/01/21 06:28:24;;;;;;;9.00;3.70;;;;;;;-2.05;72.25;98948.89;1688621;85;20999;-39
2022/01/21 06:30:50;;;;;;;12.63;6.12;;;;;;;-2.07;72.09;98972.53;1688536;85;20991;-38
2022/01/21 06:33:15;;;;;;;11.40;4.33;;;;;;;-2.15;72.18;98969.16;1688645;85;21050;-39
2022/01/21 06:35:41;;;;;;;7.67;2.67;;;;;;;-2.10;72.28;98960.11;1688608;85;21010;-39
2022/01/21 06:38:07;;;;;;;7.62;2.77;;;;;;;-2.13;72.43;98975.14;1688639;85;21013;-38
2022/01/21 06:40:33;;;;;;;4.30;2.10;;;;;;;-2.12;72.56;98963.98;1688744;85;20999;-38
2022/01/21 06:43:02;;;;;;;5.60;1.95;;;;;;;-2.16;72.78;98974.75;1694829;84;21527;-38
2022/01/21 06:45:27;;;;;;;9.00;3.87;;;;;;;-2.17;72.68;98967.88;1705018;84;21030;-38
2022/01/21 06:47:53;;;;;;;9.28;2.60;;;;;;;-2.12;72.72;98979.00;1659674;84;21543;-38
2022/01/21 06:50:19;;;;;;;7.30;2.80;;;;;;;-2.08;72.47;98973.83;1697850;84;21578;-39
2022/01/21 06:52:44;;;;;;;5.35;1.80;;;;;;;-2.15;72.65;99011.66;1697890;84;20994;-39
2022/01/21 06:55:10;;;;;;;7.97;2.00;;;;;;;-2.17;72.90;98989.78;1697839;84;21471;-39
2022/01/21 06:57:39;;;;;;;5.75;2.20;;;;;;;-2.13;72.68;98985.04;1697924;84;20995;-39
2022/01/21 07:00:07;;;;;;;3.70;1.92;;;;;;;-2.09;72.63;98980.72;1697640;84;20991;-36
2022/01/21 07:02:33;;;;;;;6.70;1.72;;;;;;;-2.05;72.49;98987.98;1697049;84;21508;-37
2022/01/21 07:04:59;;;;;;;4.47;2.02;;;;;;;-2.13;72.97;98995.34;1697817;84;20974;-38
2022/01/21 07:07:25;;;;;;;5.87;1.65;;;;;;;-2.17;72.73;98988.48;1697815;84;21039;-38
2022/01/21 07:09:51;;;;;;;7.35;1.98;;;;;;;-2.19;72.85;98990.67;1697782;84;21003;-38
2022/01/21 07:12:16;;;;;;;9.33;2.30;;;;;;;-2.17;72.84;99000.52;1697816;84;21010;-38
2022/01/21 07:14:42;;;;;;;6.55;2.12;;;;;;;-2.14;72.85;98994.06;1697789;84;21006;-38
2022/01/21 07:17:09;;;;;;;5.45;2.10;;;;;;;-2.13;72.89;98986.33;1697940;84;20999;-37
2022/01/21 07:19:34;;;;;;;8.83;2.37;;;;;;;-2.13;72.86;98990.60;1697885;84;21870;-38
2022/01/21 07:22:01;;;;;;;7.90;2.75;;;;;;;-2.20;72.69;98992.41;1697847;84;21047;-38
2022/01/21 07:24:26;;;;;;;4.53;2.00;;;;;;;-2.22;72.75;98998.41;1697783;84;21660;-37
2022/01/21 07:26:52;;;;;;;6.33;2.25;;;;;;;-2.20;72.72;99005.69;1697842;84;21427;-37
2022/01/21 07:29:18;;;;;;;7.95;2.30;;;;;;;-2.20;72.97;99013.42;1697755;84;21011;-38
2022/01/21 07:31:44;;;;;;;7.45;1.72;;;;;;;-2.23;73.26;99009.61;1697774;84;20998;-38
2022/01/21 07:34:10;;;;;;;7.10;2.45;;;;;;;-2.19;73.38;99030.59;1697810;84;20998;-38
2022/01/21 07:36:36;;;;;;;4.58;2.50;;;;;;;-2.15;73.64;99012.95;1697801;84;21010;-38
2022/01/21 07:39:04;;;;;;;5.28;1.98;;;;;;;-2.14;73.66;99011.66;1697778;84;21014;-37
2022/01/21 07:41:30;;;;;;;6.55;2.30;;;;;;;-2.07;73.35;99026.64;1697756;84;21492;-38
2022/01/21 07:43:56;;;;;;;7.20;2.22;;;;;;;-2.10;73.61;99021.95;1695077;84;21122;-38
2022/01/21 07:46:22;;;;;;;6.10;2.30;;;;;;;-2.04;73.72;99034.32;1689147;84;21014;-38
2022/01/21 07:48:48;;;;;;;7.30;2.55;;;;;;;-2.10;73.97;99028.39;1688620;85;21003;-37
2022/01/21 07:51:14;;;;;;;10.00;3.02;;;;;;;-2.01;74.06;99039.91;1688585;85;21007;-38
2022/01/21 07:53:40;;;;;;;3.87;2.05;;;;;;;-1.98;73.88;99032.16;1688594;85;20987;-38
2022/01/21 07:56:06;;;;;;;3.58;2.05;;;;;;;-1.97;73.85;99043.71;1688618;84;21014;-38
2022/01/21 07:58:32;;;;;;;9.75;2.62;;;;;;;-2.03;74.24;99048.93;1688548;84;21556;-38
2022/01/21 08:00:58;;;;;;;11.20;3.90;;;;;;;-1.95;74.37;99043.70;1688650;85;21414;-38
2022/01/21 08:03:24;;;;;;;11.43;2.92;;;;;;;-1.90;74.30;99047.55;1688634;85;21034;-38
2022/01/21 08:05:52;;;;;;;11.97;3.00;;;;;;;-1.89;74.26;99050.52;1688558;85;21014;-38
2022/01/21 08:08:18;;;;;;;9.05;2.85;;;;;;;-1.95;74.47;99049.73;1688618;85;20999;-38
2022/01/21 08:10:44;;;;;;;7.12;3.00;;;;;;;-1.98;74.36;99061.79;1688816;84;21006;-38
2022/01/21 08:13:10;;;;;;;6.55;2.60;;;;;;;-1.90;74.47;99046.25;1688645;85;21488;-37
2022/01/21 08:15:37;;;;;;;10.30;3.20;;;;;;;-1.92;74.32;99053.15;1688712;85;20995;-38
2022/01/21 08:18:03;;;;;;;11.28;2.50;;;;;;;-1.79;74.10;99052.16;1688696;85;21042;-38
2022/01/21 08:20:29;;;;;;;8.75;2.98;;;;;;;-1.92;74.37;99054.00;1688563;84;21034;-38
2022/01/21 08:22:55;;;;;;;10.63;2.77;;;;;;;-1.84;74.33;99054.77;1688573;85;20984;-38
2022/01/21 08:25:21;;;;;;;5.65;2.15;;;;;;;-1.82;74.16;99050.48;1688491;85;21003;-38
2022/01/21 08:27:47;;;;;;;9.10;3.58;;;;;;;-1.80;74.44;99048.73;1688573;85;20999;-38
2022/01/21 08:30:14;;;;;;;8.35;3.67;;;;;;;-1.77;74.14;99070.59;1688569;85;20987;-38
2022/01/21 08:32:41;;;;;;;6.47;2.45;;;;;;;-1.81;74.26;99066.80;1688761;84;21467;-40
2022/01/21 08:35:09;;;;;;;8.83;2.63;;;;;;;-1.75;74.03;99069.30;1688870;84;21402;-38
2022/01/21 08:37:35;;;;;;;12.95;3.67;;;;;;;-1.77;74.20;99066.73;1688574;84;21002;-39
2022/01/21 08:40:03;;;;;;;11.12;2.90;;;;;;;-1.64;74.15;99070.05;1688553;85;21870;-39
2022/01/21 08:42:29;;;;;;;11.40;3.72;;;;;;;-1.70;74.23;99082.16;1688537;84;21007;-38
2022/01/21 08:44:55;;;;;;;18.48;6.75;;;;;;;-1.77;74.27;99071.05;1686307;84;21472;-38
2022/01/21 08:47:22;;;;;;;17.52;8.78;;;;;;;-1.61;74.28;99071.32;1688032;85;21492;-38
2022/01/21 08:49:49;;;;;;;21.20;8.55;;;;;;;-1.65;73.75;99073.96;1688158;85;21042;-38
2022/01/21 08:52:20;;;;;;;11.10;5.83;;;;;;;-1.63;73.42;99070.93;1688220;85;21047;-39
2022/01/21 08:54:49;;;;;;;14.33;6.05;;;;;;;-1.63;73.42;99070.93;1687945;84;21316;-38
2022/01/21 08:57:17;;;;;;;10.90;3.90;;;;;;;-1.61;73.20;99082.92;1687989;85;21039;-38
2022/01/21 08:59:43;;;;;;;10.40;3.47;;;;;;;-1.60;73.36;99068.30;1688053;85;21007;-38
2022/01/21 09:02:09;;;;;;;9.25;3.42;;;;;;;-1.53;73.25;99071.69;1687966;85;21051;-38
2022/01/21 09:04:36;;;;;;;6.33;2.95;;;;;;;-1.46;72.81;99084.94;1687928;85;20999;-38
2022/01/21 09:07:03;;;;;;;7.45;3.45;;;;;;;-1.44;72.82;99079.32;1688070;85;21011;-39
2022/01/21 09:09:29;;;;;;;17.15;8.40;;;;;;;-1.46;72.69;99068.17;1688121;85;21007;-38
2022/01/21 09:11:59;;;;;;;12.43;5.60;;;;;;;-1.37;72.34;99085.69;1688012;85;20999;-39
2022/01/21 09:14:23;;;;;;;18.15;8.20;;;;;;;-1.30;72.27;99083.06;1687451;85;21027;-38
2022/01/21 09:16:49;;;;;;;14.68;5.85;;;;;;;-1.25;72.29;99076.98;1688033;85;20999;-39
2022/01/21 09:19:14;;;;;;;12.25;4.92;;;;;;;-1.25;71.75;99080.00;1687945;85;21007;-38
2022/01/21 09:21:42;;;;;;;10.00;3.70;;;;;;;-1.30;71.44;99083.91;1687866;85;20975;-39
2022/01/21 09:24:08;;;;;;;;;;;;;;;-1.18;71.39;99087.66;1690482;85;21003;-38
2022/01/21 09:26:34;;;;;;;8.48;3.67;;;;;;;-1.28;71.25;99081.31;1688005;85;20435;-39
2022/01/21 09:29:03;;;;;;;19.67;6.60;;;;;;;-1.27;70.91;99077.44;1687941;85;21362;-38
2022/01/21 09:31:29;;;;;;;13.58;4.83;;;;;;;-1.16;71.29;99071.72;1687965;85;21035;-38
2022/01/21 09:33:55;;;;;;;14.47;4.22;;;;;;;-1.02;71.71;99070.69;1687931;85;21040;-38
2022/01/21 09:36:21;;;;;;;9.55;4.60;;;;;;;-0.96;71.04;99070.63;1687890;85;21000;-38
2022/01/21 09:38:48;;;;;;;13.10;4.75;;;;;;;-0.97;70.44;99074.92;1687924;85;21010;-39
2022/01/21 09:41:17;;;;;;;9.13;4.60;;;;;;;-0.91;70.06;99068.86;1688248;84;21456;-39
2022/01/21 09:43:47;;;;;;;9.85;4.08;;;;;;;-0.86;69.76;99058.01;1687626;83;21477;-41
2022/01/21 09:46:14;;;;;;;7.53;3.80;;;;;;;-0.68;69.98;99059.95;1687180;85;21003;-38
2022/01/21 09:48:53;;;;;;;12.60;4.42;;;;;;;-0.64;69.30;99055.14;1687914;85;21132;-40
2022/01/21 09:51:17;;;;;;;10.20;5.67;;;;;;;-0.56;69.38;99065.36;1687646;85;20995;-38
2022/01/21 09:53:43;;;;;;;9.93;5.65;;;;;;;-0.53;69.07;99062.30;1688272;85;21504;-38
2022/01/21 09:56:10;;;;;;;7.50;4.08;;;;;;;-0.52;68.40;99059.30;1687948;85;21003;-39
2022/01/21 09:58:36;;;;;;;13.35;4.17;;;;;;;-0.53;68.26;99059.72;1688176;85;21050;-39
2022/01/21 10:01:05;;;;;;;14.78;4.35;;;;;;;-0.61;68.15;99065.45;1687917;84;21011;-39
2022/01/21 10:03:32;;;;;;;9.55;4.10;;;;;;;-0.60;68.24;99068.02;1687860;85;21003;-41
2022/01/21 10:05:59;;;;;;;12.30;5.37;;;;;;;-0.55;68.08;99064.50;1688140;85;21003;-39
2022/01/21 10:08:25;;;;;;;10.68;4.12;;;;;;;-0.51;67.82;99067.45;1688002;84;20999;-38
2022/01/21 10:10:51;;;;;;;11.73;3.47;;;;;;;-0.40;68.34;99066.44;1687949;85;20975;-38
2022/01/21 10:13:20;;;;;;;6.72;3.12;;;;;;;-0.26;67.93;99064.08;1687981;85;21469;-39
2022/01/21 10:15:48;;;;;;;5.72;2.17;;;;;;;-0.27;67.03;99062.39;1687874;85;20995;-39
2022/01/21 10:18:16;;;;;;;;;;;;;;;-0.36;66.44;99071.55;1675984;85;21007;-39
2022/01/21 10:21:11;;;;;;;5.60;2.58;;;;;;;-0.40;66.73;99072.90;1659284;86;20141;-39
2022/01/21 10:23:42;;;;;;;11.95;3.22;;;;;;;-0.40;66.41;99059.98;1679255;84;21016;-39
2022/01/21 10:26:19;;;;;;;8.53;3.42;;;;;;;-0.43;66.83;99059.17;1706286;84;21472;-38
2022/01/21 10:28:50;;;;;;;9.45;3.33;;;;;;;-0.41;67.02;99059.55;1706060;84;21043;-37
2022/01/21 10:31:19;;;;;;;9.13;2.42;;;;;;;-0.39;66.91;99075.88;1705499;84;21016;-39
2022/01/21 10:33:49;;;;;;;6.97;4.05;;;;;;;-0.34;66.65;99055.16;1707217;84;21027;-39
2022/01/21 10:36:30;;;;;;;7.30;4.20;;;;;;;-0.33;66.23;99050.39;1706467;83;21035;-39
2022/01/21 10:39:18;;;;;;;7.92;3.33;;;;;;;-0.22;66.02;99052.81;1703133;83;21171;-40
2022/01/21 10:41:44;;;;;;;12.07;3.37;;;;;;;-0.07;66.19;99062.08;1657079;86;22281;-38
2022/01/21 10:44:17;;;;;;;8.28;2.72;;;;;;;-0.12;66.19;99054.39;1659105;86;21631;-39
2022/01/21 10:46:49;;;;;;;8.20;3.55;;;;;;;-0.34;65.59;99055.61;1657845;86;21052;-39
2022/01/21 10:49:17;;;;;;;6.62;2.58;;;;;;;-0.23;66.15;99052.41;1658527;86;21003;-38
2022/01/21 10:51:51;;;;;;;;;;;;;;;-0.29;65.88;99057.66;1663324;86;21060;-39
2022/01/21 10:54:21;;;;;;;7.90;2.58;;;;;;;-0.25;66.00;99058.05;1655800;86;20169;-39
2022/01/21 10:57:14;;;;;;;6.12;2.95;;;;;;;-0.31;66.29;99055.53;1655092;87;21978;-39
2022/01/21 11:00:03;;;;;;;11.12;3.72;;;;;;;-0.20;66.37;99058.80;1656594;87;21060;-39
2022/01/21 11:02:40;;;;;;;10.38;4.33;;;;;;;-0.27;65.84;99061.09;1656283;87;21072;-39
2022/01/21 11:05:17;;;;;;;10.30;4.20;;;;;;;-0.51;66.38;99066.16;1656710;87;21026;-38
2022/01/21 11:08:02;;;;;;;7.28;3.00;;;;;;;-0.44;66.06;99071.24;1656122;86;21003;-39
2022/01/21 11:10:42;;;;;;;7.70;2.65;;;;;;;-0.49;66.20;99056.66;1685157;84;20999;-38
2022/01/21 11:13:20;;;;;;;;;;;;;;;-0.36;66.14;99080.58;1686475;85;20999;-38
2022/01/21 11:15:56;;;;;;;10.28;3.65;;;;;;;-0.46;66.80;99062.63;1685810;85;20111;-38
2022/01/21 11:18:25;;;;;;;10.38;3.60;;;;;;;-0.33;67.02;99063.75;1685466;85;21421;-38
2022/01/21 11:21:06;;;;;;;11.48;4.72;;;;;;;-0.23;66.65;99061.45;1683454;84;21556;-38
2022/01/21 11:23:28;;;;;;;8.65;3.60;;;;;;;-0.15;66.84;99062.17;1684998;85;21003;-39
2022/01/21 11:26:00;;;;;;;13.88;3.70;;;;;;;-0.10;66.08;99074.59;1684717;85;21052;-39
2022/01/21 11:28:40;;;;;;;11.93;3.62;;;;;;;-0.13;65.83;99067.33;1684328;84;21612;-38
2022/01/21 11:31:08;;;;;;;13.50;4.00;;;;;;;-0.11;66.02;99057.81;1685656;85;21039;-38
2022/01/21 11:33:35;;;;;;;10.03;3.47;;;;;;;-0.06;65.94;99054.27;1685810;85;21002;-38
2022/01/21 11:36:03;;;;;;;9.40;3.22;;;;;;;-0.08;66.09;99057.78;1685704;85;21010;-38
2022/01/21 11:38:30;;;;;;;7.87;3.83;;;;;;;-0.18;64.88;99059.66;1685571;84;20976;-38
2022/01/21 11:40:56;;;;;;;12.07;2.95;;;;;;;-0.11;65.43;99052.64;1684859;84;21454;-38
2022/01/21 11:43:24;;;;;;;10.95;3.47;;;;;;;-0.15;64.74;99062.17;1685417;84;21019;-38
2022/01/21 11:48:50;;;;;;;6.37;3.05;;;;;;;-0.12;65.24;99056.13;1661511;86;21034;-39
2022/01/21 11:51:27;;;;;;;7.25;3.00;;;;;;;-0.20;65.19;99050.64;1662127;86;21062;-39
2022/01/21 11:53:59;;;;;;;11.00;3.55;;;;;;;-0.29;64.90;99045.61;1661270;86;21054;-37
2022/01/21 11:56:48;;;;;;;8.13;2.98;;;;;;;-0.18;65.58;99059.66;1661081;86;21034;-38
2022/01/21 11:59:36;;;;;;;8.83;2.62;;;;;;;-0.18;65.16;99044.16;1662152;86;20994;-39
2022/01/21 12:02:00;;;;;;;9.55;3.58;;;;;;;-0.21;65.25;99036.44;1660006;86;21114;-38
2022/01/21 12:04:39;;;;;;;8.88;3.42;;;;;;;-0.26;65.72;99057.17;1661436;86;21633;-39
2022/01/21 12:07:27;;;;;;;8.63;2.95;;;;;;;-0.18;65.89;99054.50;1662089;86;21010;-37
2022/01/21 12:09:58;;;;;;;9.00;3.85;;;;;;;-0.28;64.99;99051.17;1661180;86;21358;-38
2022/01/21 12:12:53;;;;;;;13.20;4.40;;;;;;;-0.32;65.36;99048.23;1660908;86;21586;-38
2022/01/21 12:15:36;;;;;;;5.87;2.60;;;;;;;-0.28;65.67;99038.26;1660920;85;22232;-38
2022/01/21 12:18:32;;;;;;;8.70;3.45;;;;;;;-0.20;65.01;99049.34;1660668;86;21126;-37
2022/01/21 12:20:48;;;;;;;7.05;3.30;;;;;;;-0.26;64.39;99036.50;1660279;86;21047;-38
2022/01/21 12:23:19;;;;;;;;;;;;;;;-0.16;63.54;99047.56;1664071;86;21019;-37
2022/01/21 12:26:13;;;;;;;12.28;3.35;;;;;;;-0.26;62.78;99035.66;1661529;86;20115;-38